Hostname: pi-star
Pi-Star:3.4.17 / Dashboard: 20210615

Pi-Star Digital Voice Dashboard for MW0MWZ

Dashboard | Admin | Configuration



DAPNET Gateway Activity
Time (BST)Time in BST time zone Time SlotMessage Mode TargetRIC / CapCode of the receiving Pager MessageMessage contents
07:24:04 Jun 17th Slot 4 0002504 [Skyper OTA Time] 062400 170621
07:21:03 Jun 17th Slot 8 0351172 M0GLJ: GCFV 170600Z 36009KT 9999 BKN025 21/17 Q1017
07:21:02 Jun 17th Slot 8 0351172 M0GLJ: EGNX 170550Z 33006KT 300V010 9999 VCSH FEW010 BKN021 14/12 Q1009
07:03:08 Jun 17th Slot 0 0004512 [Skyper Index Rubric:1] DAPNET NEWS
07:02:14 Jun 17th Slot 8 0002504 [Skyper OTA Time] 060200 170621
07:01:48 Jun 17th Slot 4 0004520 [Skyper Rubric:28 Msg:10] SARC: ARISS contact is scheduled with students in France at Collhge Albert Camus
07:01:48 Jun 17th Slot 4 0004520 [Skyper Rubric:28 Msg:9] SWLING: Possible frequencies for the 2021 BBC Midwinter Broadcast
07:01:48 Jun 17th Slot 4 0004520 [Skyper Rubric:28 Msg:8] ARRL: Nominees for ARRL Director, Vice Director Solicited in Five Divisions
07:01:48 Jun 17th Slot 4 0004520 [Skyper Rubric:28 Msg:7] ARRL: Family Comes First during Hurricane Preparation for Home and Station
07:01:23 Jun 17th Slot 0 0004520 [Skyper Rubric:28 Msg:6] DARC: Verkauf und Nutzung von Wasservitalisierern jetzt offiziell verboten
07:01:23 Jun 17th Slot 0 0004520 [Skyper Rubric:28 Msg:5] DARC: YouTuber Michael Reichhard, DL2YMR, erkundet virtuelle Messe
07:01:23 Jun 17th Slot 0 0004520 [Skyper Rubric:28 Msg:4] SARC: VK 20 HOME
07:01:23 Jun 17th Slot 0 0004520 [Skyper Rubric:28 Msg:3] SARC: Ofcom publish British Grand Prix frequencies
07:01:23 Jun 17th Slot 0 0004520 [Skyper Rubric:28 Msg:2] SARC: Next Generation beacon fund tops R18 000
07:00:57 Jun 17th Slot 12 0004520 [Skyper Rubric:28 Msg:1] SARC: Field Day, but sure
07:00:57 Jun 17th Slot 12 0004520 [Skyper Rubric:60 Msg:3] Spot Stats: SOTA:8, WWFF:0, COTA:0, IOTA:0, GMA:0
07:00:57 Jun 17th Slot 12 0004520 [Skyper Rubric:60 Msg:2] DAPNET-Core Stats PrivMsgs:348 News:517Nodes:7/10 TXs:665/2369
07:00:57 Jun 17th Slot 12 0004520 [Skyper Rubric:60 Msg:1] DXCluster bei DB0SDAges:1800 KW:328 KWCW:156 4/6m:656 V/UHF:502 SHF:23
07:00:57 Jun 17th Slot 12 0643926 2W0YMS: RCT FAIL : CARDIFF FAIL
07:00:32 Jun 17th Slot 8 0640101 2W0YMS: RCT FAIL : CARDIFF FAIL